sensor_id;sensor_type;location;lat;lon;timestamp;P1;durP1;ratioP1;P2;durP2;ratioP2
47749;SDS011;49810;48.160;10.812;2023-05-07T00:01:59;17.13;;;12.85;;
47749;SDS011;49810;48.160;10.812;2023-05-07T00:04:27;17.52;;;12.10;;
47749;SDS011;49810;48.160;10.812;2023-05-07T00:06:55;17.98;;;11.73;;
47749;SDS011;49810;48.160;10.812;2023-05-07T00:09:24;15.98;;;12.07;;
47749;SDS011;49810;48.160;10.812;2023-05-07T00:11:52;16.98;;;11.48;;
47749;SDS011;49810;48.160;10.812;2023-05-07T00:14:20;15.50;;;10.80;;
47749;SDS011;49810;48.160;10.812;2023-05-07T00:16:48;14.73;;;10.80;;
47749;SDS011;49810;48.160;10.812;2023-05-07T00:19:16;17.77;;;10.98;;
47749;SDS011;49810;48.160;10.812;2023-05-07T00:21:44;16.05;;;11.10;;
47749;SDS011;49810;48.160;10.812;2023-05-07T00:24:13;17.65;;;11.82;;
47749;SDS011;49810;48.160;10.812;2023-05-07T00:26:42;18.08;;;11.70;;
47749;SDS011;49810;48.160;10.812;2023-05-07T00:29:10;17.00;;;10.73;;
47749;SDS011;49810;48.160;10.812;2023-05-07T00:31:38;16.23;;;11.25;;
47749;SDS011;49810;48.160;10.812;2023-05-07T00:34:06;13.65;;;10.65;;
47749;SDS011;49810;48.160;10.812;2023-05-07T00:36:33;13.32;;;11.30;;
47749;SDS011;49810;48.160;10.812;2023-05-07T00:39:02;14.75;;;11.35;;
47749;SDS011;49810;48.160;10.812;2023-05-07T00:41:30;15.00;;;11.45;;
47749;SDS011;49810;48.160;10.812;2023-05-07T00:43:59;14.63;;;11.23;;
47749;SDS011;49810;48.160;10.812;2023-05-07T00:46:29;14.10;;;11.55;;
47749;SDS011;49810;48.160;10.812;2023-05-07T00:48:58;15.07;;;10.60;;
47749;SDS011;49810;48.160;10.812;2023-05-07T00:51:26;14.70;;;11.20;;
47749;SDS011;49810;48.160;10.812;2023-05-07T00:53:55;15.13;;;11.18;;
47749;SDS011;49810;48.160;10.812;2023-05-07T00:56:23;16.83;;;11.50;;
47749;SDS011;49810;48.160;10.812;2023-05-07T00:58:51;14.88;;;11.57;;
47749;SDS011;49810;48.160;10.812;2023-05-07T01:01:21;15.18;;;11.00;;
47749;SDS011;49810;48.160;10.812;2023-05-07T01:03:49;16.70;;;11.32;;
47749;SDS011;49810;48.160;10.812;2023-05-07T01:06:17;20.73;;;12.02;;
47749;SDS011;49810;48.160;10.812;2023-05-07T01:08:46;18.25;;;11.40;;
47749;SDS011;49810;48.160;10.812;2023-05-07T01:11:17;14.23;;;11.10;;
47749;SDS011;49810;48.160;10.812;2023-05-07T01:13:45;15.45;;;11.77;;
47749;SDS011;49810;48.160;10.812;2023-05-07T01:16:14;16.77;;;12.02;;
47749;SDS011;49810;48.160;10.812;2023-05-07T01:18:43;20.45;;;12.50;;
47749;SDS011;49810;48.160;10.812;2023-05-07T01:21:13;16.70;;;12.93;;
47749;SDS011;49810;48.160;10.812;2023-05-07T01:23:45;19.48;;;13.40;;
47749;SDS011;49810;48.160;10.812;2023-05-07T01:26:13;15.75;;;11.98;;
47749;SDS011;49810;48.160;10.812;2023-05-07T01:28:44;16.77;;;12.55;;
47749;SDS011;49810;48.160;10.812;2023-05-07T01:31:12;16.58;;;11.90;;
47749;SDS011;49810;48.160;10.812;2023-05-07T01:33:42;15.52;;;12.20;;
47749;SDS011;49810;48.160;10.812;2023-05-07T01:36:11;15.60;;;12.13;;
47749;SDS011;49810;48.160;10.812;2023-05-07T01:38:39;18.35;;;13.05;;
47749;SDS011;49810;48.160;10.812;2023-05-07T01:41:10;14.45;;;12.25;;
47749;SDS011;49810;48.160;10.812;2023-05-07T01:43:39;14.10;;;12.32;;
47749;SDS011;49810;48.160;10.812;2023-05-07T01:46:07;16.92;;;12.75;;
47749;SDS011;49810;48.160;10.812;2023-05-07T01:48:37;17.70;;;13.80;;
47749;SDS011;49810;48.160;10.812;2023-05-07T01:51:06;18.85;;;13.68;;
47749;SDS011;49810;48.160;10.812;2023-05-07T01:53:35;16.95;;;13.35;;
47749;SDS011;49810;48.160;10.812;2023-05-07T01:56:04;19.15;;;14.38;;
47749;SDS011;49810;48.160;10.812;2023-05-07T01:58:34;24.70;;;14.60;;
47749;SDS011;49810;48.160;10.812;2023-05-07T02:01:02;20.27;;;14.65;;
47749;SDS011;49810;48.160;10.812;2023-05-07T02:03:30;23.63;;;15.70;;
47749;SDS011;49810;48.160;10.812;2023-05-07T02:06:07;19.58;;;14.32;;
47749;SDS011;49810;48.160;10.812;2023-05-07T02:08:37;19.67;;;14.88;;
47749;SDS011;49810;48.160;10.812;2023-05-07T02:11:05;24.80;;;16.77;;
47749;SDS011;49810;48.160;10.812;2023-05-07T02:13:36;24.60;;;15.65;;
47749;SDS011;49810;48.160;10.812;2023-05-07T02:16:04;21.42;;;14.68;;
47749;SDS011;49810;48.160;10.812;2023-05-07T02:18:33;17.80;;;12.73;;
47749;SDS011;49810;48.160;10.812;2023-05-07T02:21:02;17.50;;;12.45;;
47749;SDS011;49810;48.160;10.812;2023-05-07T02:23:31;16.88;;;12.40;;
47749;SDS011;49810;48.160;10.812;2023-05-07T02:26:00;15.57;;;12.50;;
47749;SDS011;49810;48.160;10.812;2023-05-07T02:28:28;21.65;;;13.05;;
47749;SDS011;49810;48.160;10.812;2023-05-07T02:31:03;20.13;;;13.73;;
47749;SDS011;49810;48.160;10.812;2023-05-07T02:33:32;19.50;;;13.88;;
47749;SDS011;49810;48.160;10.812;2023-05-07T02:36:06;20.80;;;14.27;;
47749;SDS011;49810;48.160;10.812;2023-05-07T02:38:37;18.65;;;12.82;;
47749;SDS011;49810;48.160;10.812;2023-05-07T02:41:05;20.05;;;13.25;;
47749;SDS011;49810;48.160;10.812;2023-05-07T02:43:33;17.75;;;14.27;;
47749;SDS011;49810;48.160;10.812;2023-05-07T02:46:01;17.75;;;14.10;;
47749;SDS011;49810;48.160;10.812;2023-05-07T02:48:33;19.02;;;14.65;;
47749;SDS011;49810;48.160;10.812;2023-05-07T02:51:01;18.42;;;13.02;;
47749;SDS011;49810;48.160;10.812;2023-05-07T02:53:30;16.48;;;12.70;;
47749;SDS011;49810;48.160;10.812;2023-05-07T02:55:59;15.25;;;12.57;;
47749;SDS011;49810;48.160;10.812;2023-05-07T02:58:27;17.10;;;12.82;;
47749;SDS011;49810;48.160;10.812;2023-05-07T03:00:57;17.65;;;13.52;;
47749;SDS011;49810;48.160;10.812;2023-05-07T03:03:47;17.63;;;13.68;;
47749;SDS011;49810;48.160;10.812;2023-05-07T03:06:15;21.67;;;13.80;;
47749;SDS011;49810;48.160;10.812;2023-05-07T03:08:43;19.70;;;13.18;;
47749;SDS011;49810;48.160;10.812;2023-05-07T03:11:11;21.25;;;12.55;;
47749;SDS011;49810;48.160;10.812;2023-05-07T03:13:39;19.08;;;12.93;;
47749;SDS011;49810;48.160;10.812;2023-05-07T03:16:07;19.75;;;14.13;;
47749;SDS011;49810;48.160;10.812;2023-05-07T03:18:35;17.00;;;13.52;;
47749;SDS011;49810;48.160;10.812;2023-05-07T03:21:05;17.70;;;14.15;;
47749;SDS011;49810;48.160;10.812;2023-05-07T03:23:33;18.67;;;14.00;;
47749;SDS011;49810;48.160;10.812;2023-05-07T03:26:00;17.70;;;12.55;;
47749;SDS011;49810;48.160;10.812;2023-05-07T03:28:30;15.63;;;12.45;;
47749;SDS011;49810;48.160;10.812;2023-05-07T03:31:01;17.98;;;13.07;;
47749;SDS011;49810;48.160;10.812;2023-05-07T03:33:32;16.42;;;13.07;;
47749;SDS011;49810;48.160;10.812;2023-05-07T03:36:00;14.10;;;11.10;;
47749;SDS011;49810;48.160;10.812;2023-05-07T03:38:30;16.73;;;13.27;;
47749;SDS011;49810;48.160;10.812;2023-05-07T03:40:58;17.60;;;13.20;;
47749;SDS011;49810;48.160;10.812;2023-05-07T03:43:26;17.98;;;13.68;;
47749;SDS011;49810;48.160;10.812;2023-05-07T03:46:01;21.17;;;14.45;;
47749;SDS011;49810;48.160;10.812;2023-05-07T03:48:28;22.15;;;13.98;;
47749;SDS011;49810;48.160;10.812;2023-05-07T03:50:58;16.05;;;13.48;;
47749;SDS011;49810;48.160;10.812;2023-05-07T03:53:32;16.30;;;12.93;;
47749;SDS011;49810;48.160;10.812;2023-05-07T03:56:00;17.33;;;13.23;;
47749;SDS011;49810;48.160;10.812;2023-05-07T03:58:32;19.10;;;14.05;;
47749;SDS011;49810;48.160;10.812;2023-05-07T04:01:05;18.98;;;14.48;;
47749;SDS011;49810;48.160;10.812;2023-05-07T04:03:34;22.67;;;15.80;;
47749;SDS011;49810;48.160;10.812;2023-05-07T04:06:03;26.08;;;17.83;;
47749;SDS011;49810;48.160;10.812;2023-05-07T04:08:36;25.63;;;16.52;;
47749;SDS011;49810;48.160;10.812;2023-05-07T04:11:05;24.73;;;17.25;;
47749;SDS011;49810;48.160;10.812;2023-05-07T04:13:35;20.40;;;16.10;;
47749;SDS011;49810;48.160;10.812;2023-05-07T04:16:05;22.75;;;14.50;;
47749;SDS011;49810;48.160;10.812;2023-05-07T04:18:35;18.77;;;15.27;;
47749;SDS011;49810;48.160;10.812;2023-05-07T04:21:04;23.77;;;17.00;;
47749;SDS011;49810;48.160;10.812;2023-05-07T04:23:36;22.50;;;16.10;;
47749;SDS011;49810;48.160;10.812;2023-05-07T04:26:08;23.60;;;15.82;;
47749;SDS011;49810;48.160;10.812;2023-05-07T04:28:40;21.73;;;15.68;;
47749;SDS011;49810;48.160;10.812;2023-05-07T04:31:08;24.27;;;15.98;;
47749;SDS011;49810;48.160;10.812;2023-05-07T04:33:37;34.05;;;22.33;;
47749;SDS011;49810;48.160;10.812;2023-05-07T04:36:08;24.58;;;18.20;;
47749;SDS011;49810;48.160;10.812;2023-05-07T04:38:44;18.00;;;14.13;;
47749;SDS011;49810;48.160;10.812;2023-05-07T04:41:13;18.33;;;13.02;;
47749;SDS011;49810;48.160;10.812;2023-05-07T04:43:42;22.73;;;15.45;;
47749;SDS011;49810;48.160;10.812;2023-05-07T04:46:11;20.67;;;14.43;;
47749;SDS011;49810;48.160;10.812;2023-05-07T04:48:41;13.75;;;10.75;;
47749;SDS011;49810;48.160;10.812;2023-05-07T04:51:08;12.68;;;10.70;;
47749;SDS011;49810;48.160;10.812;2023-05-07T04:53:37;11.52;;;9.02;;
47749;SDS011;49810;48.160;10.812;2023-05-07T04:56:06;12.68;;;10.98;;
47749;SDS011;49810;48.160;10.812;2023-05-07T04:58:39;18.85;;;12.73;;
47749;SDS011;49810;48.160;10.812;2023-05-07T05:01:08;21.88;;;13.85;;
47749;SDS011;49810;48.160;10.812;2023-05-07T05:03:37;23.15;;;13.90;;
47749;SDS011;49810;48.160;10.812;2023-05-07T05:06:07;20.48;;;13.27;;
47749;SDS011;49810;48.160;10.812;2023-05-07T05:08:35;17.55;;;11.85;;
47749;SDS011;49810;48.160;10.812;2023-05-07T05:11:03;17.85;;;12.00;;
47749;SDS011;49810;48.160;10.812;2023-05-07T05:13:35;25.42;;;16.55;;
47749;SDS011;49810;48.160;10.812;2023-05-07T05:16:11;16.27;;;11.20;;
47749;SDS011;49810;48.160;10.812;2023-05-07T05:18:39;15.88;;;11.05;;
47749;SDS011;49810;48.160;10.812;2023-05-07T05:21:09;15.75;;;11.70;;
47749;SDS011;49810;48.160;10.812;2023-05-07T05:23:38;13.30;;;10.63;;
47749;SDS011;49810;48.160;10.812;2023-05-07T05:26:06;15.00;;;10.77;;
47749;SDS011;49810;48.160;10.812;2023-05-07T05:28:36;14.07;;;10.02;;
47749;SDS011;49810;48.160;10.812;2023-05-07T05:31:04;18.33;;;10.68;;
47749;SDS011;49810;48.160;10.812;2023-05-07T05:33:35;13.27;;;9.75;;
47749;SDS011;49810;48.160;10.812;2023-05-07T05:36:04;11.90;;;9.70;;
47749;SDS011;49810;48.160;10.812;2023-05-07T05:38:33;15.02;;;10.15;;
47749;SDS011;49810;48.160;10.812;2023-05-07T05:41:01;12.52;;;9.27;;
47749;SDS011;49810;48.160;10.812;2023-05-07T05:43:30;11.25;;;8.90;;
47749;SDS011;49810;48.160;10.812;2023-05-07T05:45:59;10.85;;;8.63;;
47749;SDS011;49810;48.160;10.812;2023-05-07T05:48:28;10.82;;;8.35;;
47749;SDS011;49810;48.160;10.812;2023-05-07T05:50:58;13.52;;;8.95;;
47749;SDS011;49810;48.160;10.812;2023-05-07T05:53:26;11.50;;;8.23;;
47749;SDS011;49810;48.160;10.812;2023-05-07T05:55:54;10.38;;;7.85;;
47749;SDS011;49810;48.160;10.812;2023-05-07T05:58:22;11.73;;;7.78;;
47749;SDS011;49810;48.160;10.812;2023-05-07T06:00:55;12.07;;;7.97;;
47749;SDS011;49810;48.160;10.812;2023-05-07T06:03:27;12.55;;;7.78;;
47749;SDS011;49810;48.160;10.812;2023-05-07T06:05:58;9.60;;;7.22;;
47749;SDS011;49810;48.160;10.812;2023-05-07T06:08:28;10.40;;;7.47;;
47749;SDS011;49810;48.160;10.812;2023-05-07T06:10:57;11.93;;;7.75;;
47749;SDS011;49810;48.160;10.812;2023-05-07T06:13:26;9.73;;;7.20;;
47749;SDS011;49810;48.160;10.812;2023-05-07T06:15:55;8.63;;;6.85;;
47749;SDS011;49810;48.160;10.812;2023-05-07T06:18:23;7.68;;;6.38;;
47749;SDS011;49810;48.160;10.812;2023-05-07T06:20:54;10.70;;;7.05;;
47749;SDS011;49810;48.160;10.812;2023-05-07T06:23:26;8.90;;;6.47;;
47749;SDS011;49810;48.160;10.812;2023-05-07T06:25:55;8.77;;;6.82;;
47749;SDS011;49810;48.160;10.812;2023-05-07T06:28:28;8.77;;;6.57;;
47749;SDS011;49810;48.160;10.812;2023-05-07T06:31:11;14.02;;;10.32;;
47749;SDS011;49810;48.160;10.812;2023-05-07T06:33:40;9.98;;;6.65;;
47749;SDS011;49810;48.160;10.812;2023-05-07T06:36:10;8.02;;;6.70;;
47749;SDS011;49810;48.160;10.812;2023-05-07T06:38:38;11.80;;;6.72;;
47749;SDS011;49810;48.160;10.812;2023-05-07T06:41:06;11.80;;;8.85;;
47749;SDS011;49810;48.160;10.812;2023-05-07T06:43:36;11.45;;;8.52;;
47749;SDS011;49810;48.160;10.812;2023-05-07T06:46:31;9.65;;;6.40;;
47749;SDS011;49810;48.160;10.812;2023-05-07T06:48:59;10.93;;;6.13;;
47749;SDS011;49810;48.160;10.812;2023-05-07T06:51:29;9.05;;;6.45;;
47749;SDS011;49810;48.160;10.812;2023-05-07T06:54:01;6.93;;;5.18;;
47749;SDS011;49810;48.160;10.812;2023-05-07T06:56:32;7.82;;;5.97;;
47749;SDS011;49810;48.160;10.812;2023-05-07T06:59:01;7.95;;;6.22;;
47749;SDS011;49810;48.160;10.812;2023-05-07T07:01:34;6.65;;;5.70;;
47749;SDS011;49810;48.160;10.812;2023-05-07T07:04:04;7.22;;;5.53;;
47749;SDS011;49810;48.160;10.812;2023-05-07T07:06:33;7.43;;;5.55;;
47749;SDS011;49810;48.160;10.812;2023-05-07T07:09:08;8.65;;;5.57;;
47749;SDS011;49810;48.160;10.812;2023-05-07T07:11:37;9.73;;;6.00;;
47749;SDS011;49810;48.160;10.812;2023-05-07T07:14:05;15.85;;;10.45;;
47749;SDS011;49810;48.160;10.812;2023-05-07T07:16:40;8.95;;;5.72;;
47749;SDS011;49810;48.160;10.812;2023-05-07T07:19:08;7.78;;;5.00;;
47749;SDS011;49810;48.160;10.812;2023-05-07T07:21:38;6.13;;;4.80;;
47749;SDS011;49810;48.160;10.812;2023-05-07T07:24:05;6.78;;;4.53;;
47749;SDS011;49810;48.160;10.812;2023-05-07T07:26:34;8.60;;;4.80;;
47749;SDS011;49810;48.160;10.812;2023-05-07T07:29:02;6.43;;;4.40;;
47749;SDS011;49810;48.160;10.812;2023-05-07T07:31:30;9.68;;;4.93;;
47749;SDS011;49810;48.160;10.812;2023-05-07T07:33:59;24.65;;;14.88;;
47749;SDS011;49810;48.160;10.812;2023-05-07T07:36:27;11.48;;;7.10;;
47749;SDS011;49810;48.160;10.812;2023-05-07T07:39:13;7.90;;;4.53;;
47749;SDS011;49810;48.160;10.812;2023-05-07T07:41:43;7.20;;;4.38;;
47749;SDS011;49810;48.160;10.812;2023-05-07T07:44:12;9.27;;;5.50;;
47749;SDS011;49810;48.160;10.812;2023-05-07T07:46:45;8.60;;;5.30;;
47749;SDS011;49810;48.160;10.812;2023-05-07T07:49:14;5.50;;;3.60;;
47749;SDS011;49810;48.160;10.812;2023-05-07T07:51:43;6.90;;;4.35;;
47749;SDS011;49810;48.160;10.812;2023-05-07T07:54:13;5.72;;;3.90;;
47749;SDS011;49810;48.160;10.812;2023-05-07T07:56:43;8.48;;;4.15;;
47749;SDS011;49810;48.160;10.812;2023-05-07T07:59:12;7.03;;;3.90;;
47749;SDS011;49810;48.160;10.812;2023-05-07T08:01:48;7.20;;;4.60;;
47749;SDS011;49810;48.160;10.812;2023-05-07T08:04:20;7.15;;;4.28;;
47749;SDS011;49810;48.160;10.812;2023-05-07T08:06:48;7.55;;;4.07;;
47749;SDS011;49810;48.160;10.812;2023-05-07T08:09:18;7.05;;;3.75;;
47749;SDS011;49810;48.160;10.812;2023-05-07T08:11:46;5.20;;;3.58;;
47749;SDS011;49810;48.160;10.812;2023-05-07T08:14:14;6.10;;;3.72;;
47749;SDS011;49810;48.160;10.812;2023-05-07T08:16:45;5.25;;;3.65;;
47749;SDS011;49810;48.160;10.812;2023-05-07T08:19:13;7.72;;;3.83;;
47749;SDS011;49810;48.160;10.812;2023-05-07T08:21:41;7.75;;;3.60;;
47749;SDS011;49810;48.160;10.812;2023-05-07T08:24:10;6.03;;;3.95;;
47749;SDS011;49810;48.160;10.812;2023-05-07T08:26:42;7.35;;;3.65;;
47749;SDS011;49810;48.160;10.812;2023-05-07T08:29:11;5.68;;;3.70;;
47749;SDS011;49810;48.160;10.812;2023-05-07T08:31:41;5.40;;;3.22;;
47749;SDS011;49810;48.160;10.812;2023-05-07T08:34:09;5.88;;;3.28;;
47749;SDS011;49810;48.160;10.812;2023-05-07T08:36:41;6.13;;;3.42;;
47749;SDS011;49810;48.160;10.812;2023-05-07T08:39:14;5.93;;;3.03;;
47749;SDS011;49810;48.160;10.812;2023-05-07T08:41:45;8.95;;;3.35;;
47749;SDS011;49810;48.160;10.812;2023-05-07T08:44:14;5.80;;;3.28;;
47749;SDS011;49810;48.160;10.812;2023-05-07T08:46:45;6.22;;;3.10;;
47749;SDS011;49810;48.160;10.812;2023-05-07T08:49:16;6.32;;;2.85;;
47749;SDS011;49810;48.160;10.812;2023-05-07T08:51:46;6.28;;;2.85;;
47749;SDS011;49810;48.160;10.812;2023-05-07T08:54:15;6.35;;;2.67;;
47749;SDS011;49810;48.160;10.812;2023-05-07T08:56:46;5.10;;;2.58;;
47749;SDS011;49810;48.160;10.812;2023-05-07T08:59:14;5.95;;;2.20;;
47749;SDS011;49810;48.160;10.812;2023-05-07T09:01:43;4.38;;;2.55;;
47749;SDS011;49810;48.160;10.812;2023-05-07T09:04:12;6.63;;;2.60;;
47749;SDS011;49810;48.160;10.812;2023-05-07T09:06:42;6.40;;;3.08;;
47749;SDS011;49810;48.160;10.812;2023-05-07T09:09:14;6.30;;;2.97;;
47749;SDS011;49810;48.160;10.812;2023-05-07T09:11:42;6.72;;;2.95;;
47749;SDS011;49810;48.160;10.812;2023-05-07T09:14:13;5.05;;;3.28;;
47749;SDS011;49810;48.160;10.812;2023-05-07T09:16:43;6.60;;;3.20;;
47749;SDS011;49810;48.160;10.812;2023-05-07T09:19:12;7.45;;;3.20;;
47749;SDS011;49810;48.160;10.812;2023-05-07T09:21:43;4.97;;;3.03;;
47749;SDS011;49810;48.160;10.812;2023-05-07T09:24:15;3.88;;;2.53;;
47749;SDS011;49810;48.160;10.812;2023-05-07T09:26:43;5.03;;;2.67;;
47749;SDS011;49810;48.160;10.812;2023-05-07T09:29:15;6.10;;;2.65;;
47749;SDS011;49810;48.160;10.812;2023-05-07T09:31:44;6.28;;;3.30;;
47749;SDS011;49810;48.160;10.812;2023-05-07T09:34:16;5.85;;;3.17;;
47749;SDS011;49810;48.160;10.812;2023-05-07T09:36:47;4.45;;;2.90;;
47749;SDS011;49810;48.160;10.812;2023-05-07T09:39:14;7.43;;;3.30;;
47749;SDS011;49810;48.160;10.812;2023-05-07T09:41:43;5.00;;;2.95;;
47749;SDS011;49810;48.160;10.812;2023-05-07T09:44:19;6.05;;;3.15;;
47749;SDS011;49810;48.160;10.812;2023-05-07T09:46:52;6.90;;;2.85;;
47749;SDS011;49810;48.160;10.812;2023-05-07T09:49:29;5.22;;;3.13;;
47749;SDS011;49810;48.160;10.812;2023-05-07T09:52:03;7.20;;;3.38;;
47749;SDS011;49810;48.160;10.812;2023-05-07T09:54:35;5.15;;;2.58;;
47749;SDS011;49810;48.160;10.812;2023-05-07T09:57:05;7.70;;;3.22;;
47749;SDS011;49810;48.160;10.812;2023-05-07T09:59:35;5.53;;;2.90;;
47749;SDS011;49810;48.160;10.812;2023-05-07T10:02:08;4.40;;;2.60;;
47749;SDS011;49810;48.160;10.812;2023-05-07T10:04:44;4.88;;;2.50;;
47749;SDS011;49810;48.160;10.812;2023-05-07T10:07:13;5.63;;;2.80;;
47749;SDS011;49810;48.160;10.812;2023-05-07T10:09:42;8.27;;;2.90;;
47749;SDS011;49810;48.160;10.812;2023-05-07T10:12:19;6.68;;;3.08;;
47749;SDS011;49810;48.160;10.812;2023-05-07T10:14:50;6.95;;;3.67;;
47749;SDS011;49810;48.160;10.812;2023-05-07T10:17:19;6.85;;;4.18;;
47749;SDS011;49810;48.160;10.812;2023-05-07T10:19:48;5.60;;;3.67;;
47749;SDS011;49810;48.160;10.812;2023-05-07T10:22:17;6.15;;;3.83;;
47749;SDS011;49810;48.160;10.812;2023-05-07T10:24:47;5.50;;;3.67;;
47749;SDS011;49810;48.160;10.812;2023-05-07T10:27:17;5.95;;;3.80;;
47749;SDS011;49810;48.160;10.812;2023-05-07T10:29:53;8.05;;;4.60;;
47749;SDS011;49810;48.160;10.812;2023-05-07T10:32:30;7.95;;;3.63;;
47749;SDS011;49810;48.160;10.812;2023-05-07T10:35:02;5.13;;;2.92;;
47749;SDS011;49810;48.160;10.812;2023-05-07T10:37:32;7.25;;;3.33;;
47749;SDS011;49810;48.160;10.812;2023-05-07T10:40:00;3.83;;;2.50;;
47749;SDS011;49810;48.160;10.812;2023-05-07T10:42:31;5.13;;;2.72;;
47749;SDS011;49810;48.160;10.812;2023-05-07T10:45:11;5.68;;;2.72;;
47749;SDS011;49810;48.160;10.812;2023-05-07T10:48:08;4.30;;;2.60;;
47749;SDS011;49810;48.160;10.812;2023-05-07T10:53:40;4.05;;;2.35;;
47749;SDS011;49810;48.160;10.812;2023-05-07T10:56:26;3.75;;;2.10;;
47749;SDS011;49810;48.160;10.812;2023-05-07T11:01:58;4.55;;;2.53;;
47749;SDS011;49810;48.160;10.812;2023-05-07T11:07:33;6.22;;;2.10;;
47749;SDS011;49810;48.160;10.812;2023-05-07T11:10:10;4.40;;;2.30;;
47749;SDS011;49810;48.160;10.812;2023-05-07T11:12:53;3.47;;;1.80;;
47749;SDS011;49810;48.160;10.812;2023-05-07T11:15:33;4.10;;;2.05;;
47749;SDS011;49810;48.160;10.812;2023-05-07T11:18:05;5.45;;;2.20;;
47749;SDS011;49810;48.160;10.812;2023-05-07T11:20:44;3.40;;;2.00;;
47749;SDS011;49810;48.160;10.812;2023-05-07T11:26:21;5.05;;;1.70;;
47749;SDS011;49810;48.160;10.812;2023-05-07T11:28:49;4.97;;;1.90;;
47749;SDS011;49810;48.160;10.812;2023-05-07T11:31:22;8.73;;;2.25;;
47749;SDS011;49810;48.160;10.812;2023-05-07T11:33:53;3.65;;;1.83;;
47749;SDS011;49810;48.160;10.812;2023-05-07T11:36:22;3.95;;;2.15;;
47749;SDS011;49810;48.160;10.812;2023-05-07T11:38:52;3.75;;;1.80;;
47749;SDS011;49810;48.160;10.812;2023-05-07T11:41:20;5.53;;;1.80;;
47749;SDS011;49810;48.160;10.812;2023-05-07T11:43:58;5.10;;;1.88;;
47749;SDS011;49810;48.160;10.812;2023-05-07T11:46:27;4.20;;;1.90;;
47749;SDS011;49810;48.160;10.812;2023-05-07T11:48:56;3.40;;;1.80;;
47749;SDS011;49810;48.160;10.812;2023-05-07T11:51:24;4.55;;;2.08;;
47749;SDS011;49810;48.160;10.812;2023-05-07T11:53:53;4.43;;;1.90;;
47749;SDS011;49810;48.160;10.812;2023-05-07T11:56:21;4.20;;;1.95;;
47749;SDS011;49810;48.160;10.812;2023-05-07T11:58:49;4.07;;;1.92;;
47749;SDS011;49810;48.160;10.812;2023-05-07T12:01:19;6.43;;;2.20;;
47749;SDS011;49810;48.160;10.812;2023-05-07T12:03:49;5.60;;;1.95;;
47749;SDS011;49810;48.160;10.812;2023-05-07T12:06:18;3.80;;;1.80;;
47749;SDS011;49810;48.160;10.812;2023-05-07T12:08:46;5.88;;;2.15;;
47749;SDS011;49810;48.160;10.812;2023-05-07T12:11:16;4.05;;;2.00;;
47749;SDS011;49810;48.160;10.812;2023-05-07T12:13:49;4.13;;;2.10;;
47749;SDS011;49810;48.160;10.812;2023-05-07T12:16:17;4.65;;;2.05;;
47749;SDS011;49810;48.160;10.812;2023-05-07T12:18:45;6.80;;;2.05;;
47749;SDS011;49810;48.160;10.812;2023-05-07T12:21:16;3.70;;;1.70;;
47749;SDS011;49810;48.160;10.812;2023-05-07T12:23:46;4.43;;;1.80;;
47749;SDS011;49810;48.160;10.812;2023-05-07T12:26:14;6.68;;;1.92;;
47749;SDS011;49810;48.160;10.812;2023-05-07T12:28:42;2.78;;;1.48;;
47749;SDS011;49810;48.160;10.812;2023-05-07T12:31:10;5.93;;;1.85;;
47749;SDS011;49810;48.160;10.812;2023-05-07T12:33:38;3.75;;;1.80;;
47749;SDS011;49810;48.160;10.812;2023-05-07T12:36:07;4.53;;;1.70;;
47749;SDS011;49810;48.160;10.812;2023-05-07T12:38:36;4.47;;;1.85;;
47749;SDS011;49810;48.160;10.812;2023-05-07T12:41:06;3.97;;;1.75;;
47749;SDS011;49810;48.160;10.812;2023-05-07T12:43:34;4.38;;;2.22;;
47749;SDS011;49810;48.160;10.812;2023-05-07T12:46:03;3.67;;;1.90;;
47749;SDS011;49810;48.160;10.812;2023-05-07T12:48:31;5.50;;;1.80;;
47749;SDS011;49810;48.160;10.812;2023-05-07T12:51:00;8.57;;;3.63;;
47749;SDS011;49810;48.160;10.812;2023-05-07T12:53:28;6.80;;;2.72;;
47749;SDS011;49810;48.160;10.812;2023-05-07T12:55:57;6.90;;;2.60;;
47749;SDS011;49810;48.160;10.812;2023-05-07T12:58:28;3.20;;;1.85;;
47749;SDS011;49810;48.160;10.812;2023-05-07T13:00:56;4.72;;;1.95;;
47749;SDS011;49810;48.160;10.812;2023-05-07T13:03:27;3.30;;;1.77;;
47749;SDS011;49810;48.160;10.812;2023-05-07T13:05:57;4.07;;;2.13;;
47749;SDS011;49810;48.160;10.812;2023-05-07T13:08:29;5.00;;;1.70;;
47749;SDS011;49810;48.160;10.812;2023-05-07T13:10:57;3.85;;;2.33;;
47749;SDS011;49810;48.160;10.812;2023-05-07T13:13:28;3.70;;;1.88;;
47749;SDS011;49810;48.160;10.812;2023-05-07T13:15:58;4.95;;;1.70;;
47749;SDS011;49810;48.160;10.812;2023-05-07T13:18:28;4.20;;;1.50;;
47749;SDS011;49810;48.160;10.812;2023-05-07T13:20:56;3.08;;;1.60;;
47749;SDS011;49810;48.160;10.812;2023-05-07T13:23:24;4.10;;;2.00;;
47749;SDS011;49810;48.160;10.812;2023-05-07T13:25:52;5.03;;;2.00;;
47749;SDS011;49810;48.160;10.812;2023-05-07T13:28:21;3.95;;;1.70;;
47749;SDS011;49810;48.160;10.812;2023-05-07T13:30:50;3.65;;;1.80;;
47749;SDS011;49810;48.160;10.812;2023-05-07T13:33:18;2.88;;;1.83;;
47749;SDS011;49810;48.160;10.812;2023-05-07T13:35:46;6.72;;;1.70;;
47749;SDS011;49810;48.160;10.812;2023-05-07T13:38:14;3.60;;;1.73;;
47749;SDS011;49810;48.160;10.812;2023-05-07T13:40:43;7.25;;;2.15;;
47749;SDS011;49810;48.160;10.812;2023-05-07T13:43:11;3.83;;;1.70;;
47749;SDS011;49810;48.160;10.812;2023-05-07T13:45:39;5.03;;;1.90;;
47749;SDS011;49810;48.160;10.812;2023-05-07T13:48:09;2.95;;;1.77;;
47749;SDS011;49810;48.160;10.812;2023-05-07T13:50:37;5.55;;;1.80;;
47749;SDS011;49810;48.160;10.812;2023-05-07T13:53:05;2.67;;;1.60;;
47749;SDS011;49810;48.160;10.812;2023-05-07T13:55:33;4.75;;;1.67;;
47749;SDS011;49810;48.160;10.812;2023-05-07T13:58:01;7.88;;;2.03;;
47749;SDS011;49810;48.160;10.812;2023-05-07T14:00:33;3.50;;;1.90;;
47749;SDS011;49810;48.160;10.812;2023-05-07T14:03:01;4.22;;;1.52;;
47749;SDS011;49810;48.160;10.812;2023-05-07T14:05:30;7.35;;;3.13;;
47749;SDS011;49810;48.160;10.812;2023-05-07T14:07:59;4.93;;;2.05;;
47749;SDS011;49810;48.160;10.812;2023-05-07T14:10:27;4.90;;;1.95;;
47749;SDS011;49810;48.160;10.812;2023-05-07T14:12:54;2.92;;;1.77;;
47749;SDS011;49810;48.160;10.812;2023-05-07T14:15:22;3.03;;;1.67;;
47749;SDS011;49810;48.160;10.812;2023-05-07T14:17:50;3.75;;;1.80;;
47749;SDS011;49810;48.160;10.812;2023-05-07T14:20:18;4.03;;;2.10;;
47749;SDS011;49810;48.160;10.812;2023-05-07T14:22:48;4.15;;;1.73;;
47749;SDS011;49810;48.160;10.812;2023-05-07T14:25:16;2.83;;;1.63;;
47749;SDS011;49810;48.160;10.812;2023-05-07T14:27:48;3.30;;;1.73;;
47749;SDS011;49810;48.160;10.812;2023-05-07T14:30:16;4.03;;;1.70;;
47749;SDS011;49810;48.160;10.812;2023-05-07T14:32:44;3.38;;;1.80;;
47749;SDS011;49810;48.160;10.812;2023-05-07T14:35:12;5.97;;;1.83;;
47749;SDS011;49810;48.160;10.812;2023-05-07T14:37:41;5.03;;;2.00;;
47749;SDS011;49810;48.160;10.812;2023-05-07T14:40:10;4.90;;;2.15;;
47749;SDS011;49810;48.160;10.812;2023-05-07T14:42:39;4.18;;;2.00;;
47749;SDS011;49810;48.160;10.812;2023-05-07T14:45:08;3.88;;;1.90;;
47749;SDS011;49810;48.160;10.812;2023-05-07T14:47:36;3.13;;;1.80;;
47749;SDS011;49810;48.160;10.812;2023-05-07T14:50:05;3.30;;;1.85;;
47749;SDS011;49810;48.160;10.812;2023-05-07T14:52:33;2.75;;;1.60;;